Najaf, Iraq
Current Conditions -  °F | °C
As of 7:26 PM on Monday 24 Nov 2014 (Local Time) from KQTZ Reporting Station
Broken Clouds Broken Clouds  
Wind Chill: 16°   Ceiling: 11000
Heat Index: 16°   Visibility: 6mi
Dew Point:   Wind: 5mph
Humidity: 55%   Direction: 70°ENE
Pressure: 29.97"   Gusts: NA
Location:  31.98°N, 44.32°E
Report Text: KQTZ 241626Z 07004KT 9999 FEW047 SCT090 BKN110 16/07 A2997 RMK WND/ALSTG ESTMD
Loading
Personal Weather Stations






























Interactive Weather Map New forecast layout! Learn more

10-Day Weather Forecast

Advertisements
Track Severe Weather on mobile